Flight Track Log - Related Links

Times and Time Zones

All times are in EDT time to prevent confusion due to time zone crossing. See the DAL2352 flight status page for this flight to view local times or setup timezone preferences in your user account.

Time Position Orientation Groundspeed Altitude Reporting Facility
EDT Latitude Longitude Course Direction KTS MPH feet Rate Location/Type
Thu 06:28:54 AM 42.7672 -73.8061 180° South 163 188 1,200  Level Boston Center
Thu 06:29:55 AM 42.8189 -73.8497 328° Northwest 225 259 3,100 2,350 Climbing Boston Center
Thu 06:31:00 AM 42.4911 -74.1625 200° South  Level Estimated
Thu 06:31:17 AM 42.8906 -73.9419 317° Northwest 296 341 6,800  Level Boston Center
Thu 06:32:00 AM 42.4048 -74.2820 198° South  Level Estimated
Thu 06:32:17 AM 42.9458 -74.0200 314° West 286 329 10,000  Level Boston Center
Thu 06:33:00 AM 42.3185 -74.4012 180° South  Level Estimated
Thu 06:33:17 AM 42.9906 -74.1033 306° West 279 321 12,400  Level Boston Center
Thu 06:34:00 AM 42.2319 -74.5200 180° South  Level Estimated
Thu 06:34:18 AM 42.9269 -74.1783 221° Southwest 219 252 14,400  Level Boston Center
Thu 06:35:15 AM 42.8356 -74.1617 172° South 298 343 15,400 1,322 Climbing Boston Center
Thu 06:36:16 AM 42.7108 -74.1325 170° South 410 472 17,000 1,750 Climbing Boston Center
Thu 06:37:15 AM 42.6028 -74.1100 171° South 434 499 18,900 1,770 Climbing Boston Center
Thu 06:38:18 AM 42.4781 -74.0869 172° South 445 512 20,600 1,835 Climbing Boston Center
Thu 06:39:16 AM 42.3472 -74.0608 172° South 456 525 22,600 1,700 Climbing Boston Center
Thu 06:40:18 AM 42.2183 -74.0408 173° South 468 539 24,000 1,328 Climbing Boston Center
Thu 06:41:18 AM 42.0828 -74.0458 182° South 473 544 25,300 1,627 Climbing Boston Center
Thu 06:42:16 AM 41.9492 -74.0536 182° South 484 557 27,200 1,739 Climbing Boston Center
Thu 06:44:45 AM 41.6061 -74.0975 185° South 483 556 31,300 1,471 Climbing New York Center
Thu 06:45:44 AM 41.5097 -74.1953 217° Southwest 447 514 32,300 908 Climbing New York Center
Thu 06:46:44 AM 41.4086 -74.3061 219° Southwest 447 514 33,100 750 Climbing New York Center
Thu 06:47:44 AM 41.3117 -74.4142 220° Southwest 458 527 33,800 450 Climbing New York Center
Thu 06:48:44 AM 41.2106 -74.5164 217° Southwest 465 535 34,000 100 Climbing New York Center
Thu 06:49:44 AM 41.1092 -74.6264 219° Southwest 470 541 34,000  Level New York Center
Thu 06:50:44 AM 41.0097 -74.7361 220° Southwest 470 541 34,000  Level New York Center
Thu 06:51:44 AM 40.9081 -74.8400 218° Southwest 465 535 34,000  Level New York Center
Thu 06:52:44 AM 40.8064 -74.9492 219° Southwest 465 535 34,000  Level New York Center
Thu 06:53:44 AM 40.7047 -75.0578 219° Southwest 465 535 34,000  Level New York Center
Thu 06:54:44 AM 40.6028 -75.1636 218° Southwest 465 535 34,000  Level New York Center
Thu 06:55:44 AM 40.5006 -75.2744 220° Southwest 465 535 34,000  Level New York Center
Thu 06:56:44 AM 40.4050 -75.3744 219° Southwest 477 549 34,000  Level New York Center
Thu 06:57:44 AM 40.2986 -75.4844 218° Southwest 487 560 34,000  Level New York Center
Thu 06:58:44 AM 40.1961 -75.5997 221° Southwest 487 560 34,000  Level New York Center
Thu 06:59:44 AM 40.1133 -75.7353 231° Southwest 487 560 34,000  Level New York Center
Thu 07:00:44 AM 40.0283 -75.8700 231° Southwest 482 555 34,000  Level New York Center
Thu 07:01:44 AM 39.9453 -76.0022 231° Southwest 482 555 34,000  Level New York Center
Thu 07:03:23 AM 39.8100 -76.2156 231° Southwest 478 550 34,000  Level Washington Center
Thu 07:04:21 AM 39.7258 -76.3497 231° Southwest 478 550 34,000  Level Washington Center
Thu 07:05:22 AM 39.6458 -76.4808 232° Southwest 472 543 34,000  Level Washington Center
Thu 07:06:20 AM 39.5489 -76.6222 228° Southwest 472 543 34,000  Level Washington Center
Thu 07:07:21 AM 39.4664 -76.7528 231° Southwest 478 550 34,000  Level Washington Center
Thu 07:08:21 AM 39.3839 -76.8831 231° Southwest 478 550 34,000  Level Washington Center
Thu 07:09:23 AM 39.2989 -77.0131 230° Southwest 478 550 34,000  Level Washington Center
Thu 07:10:20 AM 39.2161 -77.1428 231° Southwest 478 550 34,000  Level Washington Center
Thu 07:11:21 AM 39.1331 -77.2694 230° Southwest 473 544 34,000  Level Washington Center
Thu 07:12:21 AM 39.0478 -77.3983 230° Southwest 473 544 34,000  Level Washington Center
Thu 07:13:22 AM 38.9644 -77.5272 230° Southwest 473 544 34,000  Level Washington Center
Thu 07:14:23 AM 38.8789 -77.6583 230° Southwest 483 556 34,000  Level Washington Center
Thu 07:15:21 AM 38.7975 -77.7786 229° Southwest 483 556 34,000  Level Washington Center
Thu 07:16:21 AM 38.7161 -77.9039 230° Southwest 483 556 34,000  Level Washington Center
Thu 07:17:21 AM 38.6322 -78.0314 230° Southwest 478 550 34,000  Level Washington Center
Thu 07:18:21 AM 38.5483 -78.1561 229° Southwest 473 544 34,000  Level Washington Center
Thu 07:19:22 AM 38.4644 -78.2778 229° Southwest 473 544 34,000  Level Washington Center
Thu 07:20:22 AM 38.3800 -78.4044 230° Southwest 473 544 34,000  Level Washington Center
Thu 07:21:21 AM 38.2936 -78.5308 229° Southwest 468 539 34,000  Level Washington Center
Thu 07:22:21 AM 38.2069 -78.6675 231° Southwest 463 533 34,000  Level Washington Center
Thu 07:23:22 AM 38.1203 -78.7933 229° Southwest 463 533 34,000  Level Washington Center
Thu 07:24:23 AM 38.0333 -78.9161 228° Southwest 468 539 34,000  Level Washington Center
Thu 07:25:23 AM 37.9594 -79.0261 230° Southwest 468 539 34,000  Level Washington Center
Thu 07:26:23 AM 37.8744 -79.1486 229° Southwest 468 539 34,000  Level Washington Center
Thu 07:27:21 AM 37.7853 -79.2706 227° Southwest 468 539 34,000  Level Washington Center
Thu 07:28:23 AM 37.6853 -79.4022 226° Southwest 474 545 34,000  Level Washington Center
Thu 07:29:23 AM 37.6086 -79.5111 228° Southwest 480 552 34,000  Level Washington Center
Thu 07:30:21 AM 37.5125 -79.6422 227° Southwest 475 547 34,000  Level Washington Center
Thu 07:31:21 AM 37.4292 -79.7581 228° Southwest 483 556 34,000  Level Washington Center
Thu 07:32:22 AM 37.3436 -79.8761 228° Southwest 488 562 34,000  Level Washington Center
Thu 07:33:23 AM 37.2472 -80.0064 227° Southwest 477 549 34,000  Level Washington Center
Thu 07:34:33 AM 37.1414 -80.1489 227° Southwest 466 536 34,000  Level Atlanta Center
Thu 07:35:33 AM 37.0536 -80.2703 228° Southwest 459 528 34,000  Level Atlanta Center
Thu 07:36:33 AM 36.9775 -80.3753 228° Southwest 459 528 34,000  Level Atlanta Center
Thu 07:37:33 AM 36.8911 -80.4908 227° Southwest 459 528 34,000  Level Atlanta Center
Thu 07:38:33 AM 36.8008 -80.6089 226° Southwest 459 528 34,000  Level Atlanta Center
Thu 07:39:33 AM 36.7061 -80.7322 226° Southwest 454 522 34,000  Level Atlanta Center
Thu 07:40:33 AM 36.6194 -80.8497 227° Southwest 460 529 34,000  Level Atlanta Center
Thu 07:41:33 AM 36.5308 -80.9642 226° Southwest 460 529 34,000  Level Atlanta Center
Thu 07:42:33 AM 36.4419 -81.0811 227° Southwest 460 529 34,000  Level Atlanta Center
Thu 07:43:33 AM 36.3569 -81.1953 227° Southwest 460 529 34,000  Level Atlanta Center
Thu 07:44:33 AM 36.2697 -81.3089 226° Southwest 460 529 34,000  Level Atlanta Center
Thu 07:45:33 AM 36.1847 -81.4200 227° Southwest 449 517 34,000  Level Atlanta Center
Thu 07:46:33 AM 36.0994 -81.5331 227° Southwest 454 522 34,000  Level Atlanta Center
Thu 07:47:33 AM 36.0078 -81.6489 226° Southwest 461 531 34,000  Level Atlanta Center
Thu 07:48:33 AM 35.9306 -81.7511 227° Southwest 461 531 34,000  Level Atlanta Center
Thu 07:49:33 AM 35.8428 -81.8614 226° Southwest 456 525 34,000  Level Atlanta Center
Thu 07:50:33 AM 35.7489 -81.9764 225° Southwest 468 539 34,000  Level Atlanta Center
Thu 07:51:33 AM 35.6631 -82.0911 227° Southwest 468 539 34,000  Level Atlanta Center
Thu 07:52:33 AM 35.5731 -82.2056 226° Southwest 463 533 34,000 -50 Level Atlanta Center
Thu 07:53:33 AM 35.4850 -82.3172 226° Southwest 458 527 33,900 -950 Descending Atlanta Center
Thu 07:54:33 AM 35.3925 -82.4261 224° Southwest 458 527 32,100 -1,650 Descending Atlanta Center
Thu 07:55:33 AM 35.2958 -82.5347 223° Southwest 474 545 30,600 -1,350 Descending Atlanta Center
Thu 07:56:33 AM 35.1908 -82.6486 222° Southwest 469 540 29,400 -1,000 Descending Atlanta Center
Thu 07:57:33 AM 35.0897 -82.7569 221° Southwest 476 548 28,600 -750 Descending Atlanta Center
Thu 07:58:33 AM 34.9928 -82.8650 222° Southwest 476 548 27,900 -800 Descending Atlanta Center
Thu 07:59:33 AM 34.8917 -82.9728 221° Southwest 481 554 27,000 -800 Descending Atlanta Center
Thu 08:00:33 AM 34.7922 -83.0775 221° Southwest 486 559 26,300 -700 Descending Atlanta Center
Thu 08:01:33 AM 34.6908 -83.1850 221° Southwest 481 554 25,600 -950 Descending Atlanta Center
Thu 08:02:33 AM 34.5956 -83.2919 223° Southwest 476 548 24,400 -1,150 Descending Atlanta Center
Thu 08:03:33 AM 34.5000 -83.3961 222° Southwest 468 539 23,300 -1,500 Descending Atlanta Center
Thu 08:04:33 AM 34.4108 -83.4950 222° Southwest 447 514 21,400 -1,800 Descending Atlanta Center
Thu 08:05:33 AM 34.3297 -83.5811 221° Southwest 410 472 19,700 -1,650 Descending Atlanta Center
Thu 08:06:33 AM 34.2653 -83.6542 223° Southwest 382 440 18,100 -1,800 Descending Atlanta Center
Thu 08:07:33 AM 34.1906 -83.7300 220° Southwest 360 414 16,100 -2,550 Descending Atlanta Center
Thu 08:08:33 AM 34.1197 -83.8081 222° Southwest 351 404 13,000 -2,237 Descending Atlanta Center
Thu 08:09:31 AM 34.0500 -83.8833 222° Southwest 327 376 11,700 -1,220 Descending Atlanta TRACON
Thu 08:10:31 AM 33.9833 -83.9500 220° Southwest 298 343 10,600 -1,200 Descending Atlanta TRACON
Thu 08:11:31 AM 33.9000 -83.9667 189° South 309 356 9,300 -842 Descending Atlanta TRACON
Thu 08:12:25 AM 33.8333 -83.9667 180° South 264 304 9,000 -500 Descending Atlanta TRACON
Thu 08:13:31 AM 33.7667 -83.9667 180° South 250 288 8,300 -850 Descending Atlanta TRACON
Thu 08:14:25 AM 33.7000 -83.9833 192° South 245 282 7,300 -684 Descending Atlanta TRACON
Thu 08:15:25 AM 33.6333 -84.0167 203° Southwest 239 275 7,000 -650 Descending Atlanta TRACON
Thu 08:16:25 AM 33.6333 -84.0667 270° West 192 221 6,000 -800 Descending Atlanta TRACON
Thu 08:17:25 AM 33.6333 -84.1333 270° West 191 220 5,400 -750 Descending Atlanta TRACON
Thu 08:18:25 AM 33.6333 -84.2000 270° West 194 223 4,500 -952 Descending Atlanta TRACON
Thu 08:19:31 AM 33.6333 -84.2667 270° West 183 211 3,400 -1,000 Descending Atlanta TRACON
Thu 08:20:31 AM 33.6333 -84.3333 270° West 169 194 2,400 -850 Descending Atlanta TRACON
Thu 08:21:31 AM 33.6333 -84.3833 270° West 147 169 1,700 -700 Descending Atlanta TRACON

Login

Don't have an account? Register now (free) for customized features, flight alerts, and more!